createdAt,value
2023-01-03T00:32:21.114Z,11.20
2023-01-03T01:02:05.267Z,10.60
2023-01-03T01:27:25.998Z,10.80
2023-01-03T01:53:16.671Z,11.00
2023-01-03T03:08:50.097Z,10.90
2023-01-03T03:29:35.588Z,10.60
2023-01-03T03:49:40.525Z,10.20
2023-01-03T04:25:29.526Z,9.80
2023-01-03T05:10:39.186Z,9.20
2023-01-03T05:35:48.903Z,9.00
2023-01-03T06:29:47.164Z,8.10
2023-01-03T06:44:31.708Z,8.40
2023-01-03T06:54:46.358Z,8.40
2023-01-03T07:25:15.001Z,8.40
2023-01-03T07:50:08.866Z,8.70
2023-01-03T08:16:00.811Z,9.00
2023-01-03T08:40:56.055Z,8.90
2023-01-03T09:06:12.751Z,9.60
2023-01-03T09:36:54.193Z,9.70
2023-01-03T10:12:16.610Z,9.60
2023-01-03T10:47:35.379Z,9.90
2023-01-03T11:08:28.556Z,10.10
2023-01-03T11:33:54.182Z,8.80
2023-01-03T12:49:25.792Z,7.70
2023-01-03T13:14:54.025Z,7.40
2023-01-03T13:35:35.573Z,7.30
2023-01-03T14:10:25.701Z,6.70
2023-01-03T14:36:02.176Z,6.40
2023-01-03T15:06:26.404Z,5.90
2023-01-03T15:36:47.211Z,5.60
2023-01-03T16:17:54.297Z,5.00
2023-01-03T16:42:37.244Z,4.90
2023-01-03T17:03:39.527Z,5.00
2023-01-03T17:08:03.789Z,5.00
2023-01-03T17:33:59.527Z,5.20
2023-01-03T17:59:15.984Z,4.50
2023-01-03T18:19:26.756Z,4.70
2023-01-03T18:49:57.596Z,5.00
2023-01-03T19:29:59.401Z,5.20
2023-01-03T19:55:51.213Z,5.20
2023-01-03T20:26:24.394Z,4.70
2023-01-03T21:11:21.377Z,4.70
2023-01-03T21:46:52.098Z,4.90
2023-01-03T21:57:04.422Z,5.00
2023-01-03T22:43:05.930Z,5.10
2023-01-03T23:18:27.487Z,4.50
2023-01-03T23:59:15.581Z,4.40
